Time;durP1;ratioP1;P1;durP2;ratioP2;P2;SDS_P1;SDS_P2;PMS_P1;PMS_P2;Temp;Humidity;BMP_temperature;BMP_pressure;BME280_temperature;BME280_humidity;BME280_pressure;Samples;Min_cycle;Max_cycle;Signal;HPM_P1;HPM_P2
2021/07/18 00:00:24;;;;;;;7.13;6.30;;;18.70;99.90;;;;;;6134772;23;20437;-79
2021/07/18 00:02:55;;;;;;;6.83;4.77;;;18.60;99.90;;;;;;6169515;23;20472;-79
2021/07/18 00:05:24;;;;;;;8.80;5.10;;;18.60;99.90;;;;;;6133891;23;20456;-80
2021/07/18 00:07:52;;;;;;;9.03;6.00;;;18.60;99.90;;;;;;6134620;23;20412;-80
2021/07/18 00:10:27;;;;;;;7.30;4.90;;;18.60;99.90;;;;;;6133211;23;20547;-80
2021/07/18 00:12:57;;;;;;;11.13;5.80;;;18.50;99.90;;;;;;6133361;23;20416;-80
2021/07/18 00:15:25;;;;;;;6.87;5.43;;;18.50;99.90;;;;;;6134193;23;20421;-80
2021/07/18 00:17:57;;;;;;;8.03;5.20;;;18.40;99.90;;;;;;6159407;23;20453;-80
2021/07/18 00:20:26;;;;;;;8.37;5.30;;;18.40;99.90;;;;;;6169361;23;20500;-80
2021/07/18 00:23:00;;;;;;;10.07;5.33;;;18.40;99.90;;;;;;6133364;23;20417;-79
2021/07/18 00:25:28;;;;;;;6.50;5.47;;;18.40;99.90;;;;;;6133315;23;20490;-80
2021/07/18 00:27:59;;;;;;;8.30;4.70;;;18.40;99.90;;;;;;6158279;23;20444;-80
2021/07/18 00:30:28;;;;;;;8.60;4.63;;;18.40;99.90;;;;;;6133765;23;20449;-80
2021/07/18 00:33:04;;;;;;;8.90;5.30;;;18.40;99.90;;;;;;6133780;23;20416;-80
2021/07/18 00:35:37;;;;;;;7.00;6.03;;;18.40;99.90;;;;;;6159356;23;20711;-80
2021/07/18 00:53:23;;;;;;;6.27;4.67;;;18.20;99.90;;;;;;6160238;23;20427;-80
2021/07/18 00:55:52;;;;;;;7.68;5.30;;;18.20;99.90;;;;;;6132886;23;20500;-79
2021/07/18 00:58:22;;;;;;;6.83;4.50;;;18.20;99.90;;;;;;6133480;23;20173;-80
2021/07/18 01:00:50;;;;;;;8.70;5.20;;;18.20;99.90;;;;;;6133797;23;20472;-80
2021/07/18 01:03:20;;;;;;;7.47;4.60;;;18.20;99.90;;;;;;6133348;23;20440;-79
2021/07/18 01:05:48;;;;;;;6.87;4.60;;;18.20;99.90;;;;;;6133574;23;20417;-80
2021/07/18 01:08:16;;;;;;;7.60;4.60;;;18.20;99.90;;;;;;6133273;23;20436;-79
2021/07/18 01:10:46;;;;;;;7.00;5.43;;;18.20;99.90;;;;;;6168948;23;20928;-80
2021/07/18 01:13:15;;;;;;;5.83;5.23;;;18.20;99.90;;;;;;6159291;23;20400;-79
2021/07/18 01:15:44;;;;;;;10.27;4.50;;;18.10;99.90;;;;;;6160821;23;20413;-80
2021/07/18 01:18:13;;;;;;;8.50;4.53;;;18.10;99.90;;;;;;6133720;23;20507;-80
2021/07/18 01:20:45;;;;;;;4.77;4.27;;;18.10;99.90;;;;;;6133498;23;20436;-79
2021/07/18 01:23:15;;;;;;;9.50;5.53;;;18.10;99.90;;;;;;6133253;23;20478;-79
2021/07/18 01:25:44;;;;;;;7.57;4.63;;;18.10;99.90;;;;;;6133257;23;20900;-79
2021/07/18 01:28:14;;;;;;;6.30;4.00;;;18.10;99.90;;;;;;6132739;23;20933;-79
2021/07/18 01:30:43;;;;;;;6.83;4.17;;;18.10;99.90;;;;;;6133530;23;20531;-79
2021/07/18 01:33:11;;;;;;;6.53;4.00;;;18.10;99.90;;;;;;6133609;23;20844;-79
2021/07/18 01:35:56;;;;;;;5.73;4.43;;;18.10;99.90;;;;;;6133976;23;20425;-79
2021/07/18 01:45:51;;;;;;;5.00;4.10;;;18.00;99.90;;;;;;6131782;23;20417;-79
2021/07/18 01:48:19;;;;;;;8.07;4.27;;;18.00;99.90;;;;;;6132530;23;20479;-79
2021/07/18 01:50:48;;;;;;;4.83;4.00;;;18.00;99.90;;;;;;6132691;23;20452;-79
2021/07/18 01:53:16;;;;;;;5.83;4.23;;;18.00;99.90;;;;;;6134529;23;20443;-80
2021/07/18 01:55:44;;;;;;;7.70;4.07;;;18.00;99.90;;;;;;6134643;23;20760;-80
2021/07/18 01:58:12;;;;;;;6.80;4.53;;;18.00;99.90;;;;;;6134678;23;20479;-80
2021/07/18 02:00:40;;;;;;;5.60;3.47;;;17.90;99.90;;;;;;6134544;23;20717;-79
2021/07/18 02:03:10;;;;;;;6.77;4.17;;;17.90;99.90;;;;;;6161005;23;20432;-79
2021/07/18 02:05:39;;;;;;;7.18;4.38;;;17.90;99.90;;;;;;6132768;23;20447;-79
2021/07/18 02:08:08;;;;;;;6.83;4.60;;;18.00;99.90;;;;;;6134458;23;20177;-79
2021/07/18 02:10:40;;;;;;;5.00;4.37;;;18.00;99.90;;;;;;6133589;23;20455;-79
2021/07/18 02:13:08;;;;;;;6.00;3.83;;;17.90;99.90;;;;;;6134222;23;20400;-79
2021/07/18 02:15:37;;;;;;;10.83;4.73;;;17.90;99.90;;;;;;6160583;23;20414;-79
2021/07/18 02:18:05;;;;;;;5.90;4.90;;;17.90;99.90;;;;;;6134150;23;20448;-79
2021/07/18 02:20:35;;;;;;;5.77;4.60;;;17.90;99.90;;;;;;6133831;23;21007;-79
2021/07/18 02:23:03;;;;;;;9.23;4.60;;;17.90;99.90;;;;;;6161019;23;20839;-79
2021/07/18 02:25:32;;;;;;;7.90;4.50;;;17.80;99.90;;;;;;6134566;23;20424;-79
2021/07/18 02:28:00;;;;;;;7.63;4.60;;;17.80;99.90;;;;;;6134692;23;20421;-79
2021/07/18 02:30:30;;;;;;;6.40;3.83;;;17.80;99.90;;;;;;6171075;23;20433;-79
2021/07/18 02:33:00;;;;;;;6.83;4.57;;;17.80;99.90;;;;;;6134874;23;20557;-80
2021/07/18 02:35:28;;;;;;;6.47;4.20;;;17.80;99.90;;;;;;6170594;23;20389;-79
2021/07/18 02:38:01;;;;;;;6.47;4.87;;;17.80;99.90;;;;;;6134746;23;20451;-80
2021/07/18 02:40:29;;;;;;;7.83;4.33;;;17.80;99.90;;;;;;6160693;23;20453;-79
2021/07/18 02:42:58;;;;;;;6.63;5.03;;;17.70;99.90;;;;;;6134523;23;20436;-79
2021/07/18 02:45:26;;;;;;;6.10;5.20;;;17.70;99.90;;;;;;6134016;23;20823;-79
2021/07/18 02:47:54;;;;;;;7.90;4.43;;;17.70;99.90;;;;;;6134636;23;20478;-79
2021/07/18 02:50:29;;;;;;;4.57;4.10;;;17.70;99.90;;;;;;6134938;23;20448;-79
2021/07/18 02:52:57;;;;;;;7.20;4.73;;;17.70;99.90;;;;;;6135474;23;20436;-79
2021/07/18 02:55:27;;;;;;;4.70;4.20;;;17.60;99.90;;;;;;6134127;23;20460;-79
2021/07/18 02:57:55;;;;;;;9.13;5.43;;;17.60;99.90;;;;;;6135283;23;20481;-79
2021/07/18 03:00:25;;;;;;;10.30;4.80;;;17.60;99.90;;;;;;6169695;23;20421;-79
2021/07/18 03:02:56;;;;;;;6.30;4.53;;;17.60;99.90;;;;;;6133977;23;20404;-80
2021/07/18 03:05:24;;;;;;;10.00;6.97;;;17.60;99.90;;;;;;6170876;23;20392;-80
2021/07/18 03:08:10;;;;;;;7.53;5.17;;;17.60;99.90;;;;;;6134000;23;20760;-79
2021/07/18 03:11:01;;;;;;;6.60;4.97;;;17.60;99.90;;;;;;6159970;23;20831;-79
2021/07/18 03:13:33;;;;;;;5.53;4.70;;;17.50;99.90;;;;;;6134051;23;20486;-79
2021/07/18 03:16:03;;;;;;;7.83;5.40;;;17.50;99.90;;;;;;6134312;23;20419;-79
2021/07/18 03:18:31;;;;;;;6.95;5.03;;;17.50;99.90;;;;;;6133291;23;20432;-79
2021/07/18 03:20:59;;;;;;;8.13;4.80;;;17.50;99.90;;;;;;6134099;23;20220;-79
2021/07/18 03:23:27;;;;;;;7.67;4.77;;;17.50;99.90;;;;;;6134132;23;20444;-79
2021/07/18 03:25:55;;;;;;;11.53;5.90;;;17.50;99.90;;;;;;6133909;23;20409;-79
2021/07/18 03:28:25;;;;;;;4.80;4.30;;;17.50;99.90;;;;;;6134205;23;20425;-80
2021/07/18 03:30:57;;;;;;;7.37;5.10;;;17.50;99.90;;;;;;6169458;23;20411;-79
2021/07/18 03:33:25;;;;;;;10.53;5.30;;;17.50;99.90;;;;;;6160724;23;20422;-80
2021/07/18 03:36:23;;;;;;;10.17;5.27;;;17.50;99.90;;;;;;6133670;23;20425;-79
2021/07/18 03:38:51;;;;;;;9.17;5.30;;;17.50;99.90;;;;;;6169828;23;20413;-80
2021/07/18 03:41:20;;;;;;;5.47;4.97;;;17.40;99.90;;;;;;6134035;23;20444;-79
2021/07/18 03:43:51;;;;;;;9.20;5.47;;;17.40;99.90;;;;;;6133840;23;20421;-79
2021/07/18 03:46:20;;;;;;;9.00;6.07;;;17.40;99.90;;;;;;6134456;23;20856;-79
2021/07/18 03:48:48;;;;;;;6.17;5.33;;;17.40;99.90;;;;;;6133816;23;20421;-79
2021/07/18 03:51:18;;;;;;;8.37;4.53;;;17.40;99.90;;;;;;6133493;23;20492;-79
2021/07/18 03:53:46;;;;;;;9.30;5.23;;;17.40;99.90;;;;;;6133871;23;20511;-79
2021/07/18 03:56:22;;;;;;;7.03;5.57;;;17.40;99.90;;;;;;6133244;23;20420;-79
2021/07/18 03:58:55;;;;;;;5.90;5.10;;;17.40;99.90;;;;;;6169241;23;20356;-79
2021/07/18 04:01:26;;;;;;;8.53;5.13;;;17.40;99.90;;;;;;6169494;23;20844;-78
2021/07/18 04:03:59;;;;;;;6.67;5.40;;;17.40;99.90;;;;;;6133468;23;20451;-79
2021/07/18 04:06:27;;;;;;;12.00;5.73;;;17.40;99.90;;;;;;6133490;23;20452;-79
2021/07/18 04:08:58;;;;;;;10.80;5.97;;;17.40;99.90;;;;;;6132905;23;20416;-79
2021/07/18 04:11:26;;;;;;;8.77;5.50;;;17.40;99.90;;;;;;6132429;23;20827;-79
2021/07/18 04:21:33;;;;;;;6.53;5.30;;;17.30;99.90;;;;;;5895877;23;20532;-79
2021/07/18 04:24:01;;;;;;;8.97;6.00;;;17.30;99.90;;;;;;6050734;23;20420;-79
2021/07/18 04:26:30;;;;;;;6.93;5.47;;;17.40;99.90;;;;;;6073423;23;20960;-79
2021/07/18 04:28:58;;;;;;;7.40;4.97;;;17.40;99.90;;;;;;6073658;23;20425;-79
2021/07/18 04:31:26;;;;;;;6.77;5.57;;;17.40;99.90;;;;;;6096931;23;20445;-78
2021/07/18 04:33:54;;;;;;;8.75;5.80;;;17.40;99.90;;;;;;6072123;23;20491;-78
2021/07/18 04:36:22;;;;;;;6.30;5.60;;;17.40;99.90;;;;;;6074052;23;20234;-79
2021/07/18 04:38:52;;;;;;;7.97;5.37;;;17.40;99.90;;;;;;6099420;23;20807;-79
2021/07/18 04:41:21;;;;;;;8.07;5.80;;;17.40;99.90;;;;;;6073270;23;20492;-79
2021/07/18 04:43:49;;;;;;;6.03;5.53;;;17.40;99.90;;;;;;6107705;23;20499;-79
2021/07/18 04:46:18;;;;;;;7.27;5.67;;;17.50;99.90;;;;;;6079743;23;20417;-79
2021/07/18 04:48:46;;;;;;;7.73;4.80;;;17.40;99.90;;;;;;6168506;23;20397;-79
2021/07/18 04:51:15;;;;;;;7.77;5.30;;;17.50;99.90;;;;;;6132327;23;20444;-79
2021/07/18 04:53:44;;;;;;;6.03;5.07;;;17.50;99.90;;;;;;6142835;23;20903;-79
2021/07/18 04:56:13;;;;;;;6.70;5.30;;;17.50;99.90;;;;;;6132733;23;20828;-79
2021/07/18 04:58:41;;;;;;;7.00;5.17;;;17.50;99.90;;;;;;6131881;23;20479;-79
2021/07/18 05:01:10;;;;;;;7.00;5.27;;;17.50;99.90;;;;;;6132619;23;20464;-79
2021/07/18 05:03:38;;;;;;;6.10;4.83;;;17.50;99.90;;;;;;6132737;23;20412;-79
2021/07/18 05:06:07;;;;;;;6.53;5.17;;;17.60;99.90;;;;;;6157520;23;20776;-79
2021/07/18 05:08:35;;;;;;;6.87;5.83;;;17.60;99.90;;;;;;6168463;23;20491;-79
2021/07/18 05:11:04;;;;;;;7.70;5.30;;;17.60;99.90;;;;;;6131310;23;20452;-79
2021/07/18 05:13:34;;;;;;;5.93;5.23;;;17.60;99.90;;;;;;6132440;23;20495;-79
2021/07/18 05:16:02;;;;;;;7.73;4.63;;;17.60;99.90;;;;;;6131806;23;20491;-79
2021/07/18 05:18:30;;;;;;;8.23;5.47;;;17.60;99.90;;;;;;6131996;23;20421;-79
2021/07/18 05:20:58;;;;;;;5.70;5.20;;;17.70;99.90;;;;;;6132377;23;20444;-79
2021/07/18 05:23:27;;;;;;;7.37;5.40;;;17.70;99.90;;;;;;6168069;23;20907;-79
2021/07/18 05:25:55;;;;;;;8.63;5.17;;;17.80;99.90;;;;;;6133341;23;20418;-79
2021/07/18 05:28:23;;;;;;;8.30;5.87;;;17.80;99.90;;;;;;6133996;23;20527;-79
2021/07/18 05:30:53;;;;;;;7.77;5.00;;;17.80;99.90;;;;;;6170241;23;20454;-79
2021/07/18 05:33:21;;;;;;;10.73;5.27;;;17.80;99.90;;;;;;6133901;23;20496;-79
2021/07/18 05:35:52;;;;;;;7.63;5.30;;;17.90;99.90;;;;;;6134160;23;20499;-79
2021/07/18 05:38:20;;;;;;;4.93;4.43;;;17.90;99.90;;;;;;6134173;23;20484;-79
2021/07/18 05:41:02;;;;;;;6.25;5.22;;;18.00;99.90;;;;;;6133952;23;20412;-79
2021/07/18 05:43:30;;;;;;;8.33;5.30;;;18.00;99.90;;;;;;6133694;23;20193;-78
2021/07/18 05:46:00;;;;;;;11.83;6.20;;;18.00;99.90;;;;;;6133787;23;20907;-78
2021/07/18 05:48:30;;;;;;;6.10;5.50;;;18.10;99.90;;;;;;6134037;23;20750;-79
2021/07/18 05:50:58;;;;;;;6.03;4.70;;;18.10;99.90;;;;;;6133619;23;20523;-79
2021/07/18 05:53:27;;;;;;;5.90;4.23;;;18.20;99.90;;;;;;6134028;23;20465;-78
2021/07/18 05:55:57;;;;;;;6.23;4.33;;;18.20;99.90;;;;;;6160466;23;20397;-79
2021/07/18 05:58:25;;;;;;;6.63;4.77;;;18.30;99.90;;;;;;6160586;23;20748;-79
2021/07/18 06:00:55;;;;;;;6.77;4.77;;;18.50;99.90;;;;;;6133755;23;20437;-79
2021/07/18 06:03:25;;;;;;;5.67;4.60;;;18.80;99.90;;;;;;6133806;23;20431;-79
2021/07/18 06:05:54;;;;;;;5.17;3.80;;;19.00;99.90;;;;;;6133745;23;20419;-79
2021/07/18 06:08:22;;;;;;;5.60;4.13;;;19.30;99.90;;;;;;6133187;23;20503;-79
2021/07/18 06:10:50;;;;;;;4.50;4.10;;;19.50;99.90;;;;;;6133359;23;20441;-79
2021/07/18 06:13:20;;;;;;;5.40;4.53;;;19.80;99.90;;;;;;6133632;23;20493;-79
2021/07/18 06:15:48;;;;;;;6.10;3.60;;;20.00;99.90;;;;;;6134066;23;20424;-80
2021/07/18 06:18:18;;;;;;;7.33;3.60;;;20.30;99.90;;;;;;6169883;23;20856;-80
2021/07/18 06:20:49;;;;;;;5.10;3.73;;;20.50;99.90;;;;;;6134879;23;20832;-79
2021/07/18 06:23:20;;;;;;;6.03;3.63;;;20.70;99.90;;;;;;6134653;23;20393;-79
2021/07/18 06:26:01;;;;;;;7.50;3.93;;;20.80;99.90;;;;;;6134532;23;20423;-79
2021/07/18 06:28:29;;;;;;;5.73;3.93;;;20.90;99.90;;;;;;6133974;23;20496;-80
2021/07/18 06:30:57;;;;;;;5.33;4.20;;;21.10;99.90;;;;;;6133934;23;20437;-79
2021/07/18 06:33:27;;;;;;;5.13;4.47;;;21.20;99.90;;;;;;6133556;23;20440;-79
2021/07/18 06:35:56;;;;;;;6.50;4.30;;;21.20;99.90;;;;;;6134502;23;20421;-80
2021/07/18 06:38:34;;;;;;;4.53;3.57;;;21.20;99.90;;;;;;6134329;23;20421;-79
2021/07/18 06:41:03;;;;;;;6.77;3.57;;;21.20;99.90;;;;;;6134411;23;20856;-79
2021/07/18 06:43:32;;;;;;;5.07;3.93;;;21.30;99.90;;;;;;6171177;23;20401;-80
2021/07/18 06:46:15;;;;;;;6.33;3.80;;;21.30;99.90;;;;;;6134276;23;20459;-79
2021/07/18 06:48:44;;;;;;;4.77;3.87;;;21.30;99.90;;;;;;6171039;23;20405;-79
2021/07/18 06:51:13;;;;;;;7.43;3.63;;;21.30;99.90;;;;;;6134688;23;20440;-81
2021/07/18 06:56:33;;;;;;;4.37;3.80;;;21.50;99.90;;;;;;6131487;23;20670;-80
2021/07/18 06:59:01;;;;;;;6.17;3.60;;;21.50;99.90;;;;;;6172730;23;20472;-79
2021/07/18 07:01:30;;;;;;;8.73;3.97;;;21.40;99.90;;;;;;6163752;23;20429;-80
2021/07/18 07:03:58;;;;;;;5.25;3.65;;;21.50;99.90;;;;;;6138193;23;20816;-80
2021/07/18 07:06:28;;;;;;;7.60;4.40;;;21.40;99.90;;;;;;6138605;23;20240;-77
2021/07/18 07:08:59;;;;;;;5.63;4.33;;;21.40;99.90;;;;;;6133364;23;20420;-76
2021/07/18 07:11:29;;;;;;;4.73;4.23;;;21.50;99.90;;;;;;6130468;23;20527;-76
2021/07/18 07:13:58;;;;;;;4.77;3.77;;;21.60;99.90;;;;;;6139353;23;20441;-80
2021/07/18 07:16:26;;;;;;;6.27;4.03;;;21.80;99.90;;;;;;6144117;23;20424;-79
2021/07/18 07:18:55;;;;;;;5.70;4.33;;;21.90;99.90;;;;;;6144009;23;20413;-81
2021/07/18 07:21:26;;;;;;;5.20;4.57;;;21.90;99.90;;;;;;6145312;23;20436;-81
2021/07/18 07:23:56;;;;;;;6.40;4.33;;;22.10;99.90;;;;;;6143716;23;20497;-79
2021/07/18 07:26:25;;;;;;;5.00;3.93;;;22.20;99.90;;;;;;6143363;23;20479;-82
2021/07/18 07:28:53;;;;;;;5.00;4.50;;;22.20;99.90;;;;;;6173316;23;20405;-78
2021/07/18 07:31:21;;;;;;;3.73;3.43;;;22.20;99.90;;;;;;6134539;23;20441;-83
2021/07/18 07:33:50;;;;;;;8.77;3.83;;;22.10;99.90;;;;;;6170622;23;20429;-80
2021/07/18 07:36:26;;;;;;;4.53;4.13;;;22.10;99.90;;;;;;6162607;23;20413;-81
2021/07/18 07:38:56;;;;;;;4.10;3.63;;;22.00;99.90;;;;;;6138210;23;20801;-83
2021/07/18 07:52:14;;;;;;;5.05;3.80;;;22.00;99.90;;;;;;5900090;24;20426;-81
2021/07/18 07:54:45;;;;;;;4.93;3.33;;;22.00;99.90;;;;;;5983990;24;20197;-80
2021/07/18 07:57:13;;;;;;;6.07;3.47;;;22.00;99.90;;;;;;5986504;24;20437;-82
2021/07/18 07:59:42;;;;;;;4.50;4.07;;;22.00;99.90;;;;;;5989204;24;20426;-82
2021/07/18 08:02:11;;;;;;;5.35;3.45;;;22.10;99.90;;;;;;5986670;24;20422;-81
2021/07/18 08:04:43;;;;;;;5.57;3.67;;;22.40;99.90;;;;;;5989540;24;20177;-81
2021/07/18 08:07:11;;;;;;;5.23;3.20;;;22.60;99.90;;;;;;5986151;24;20426;-84
2021/07/18 08:09:39;;;;;;;4.07;3.67;;;22.90;99.90;;;;;;5987474;24;20485;-82
2021/07/18 08:12:11;;;;;;;6.80;3.70;;;23.00;99.90;;;;;;5989231;24;20461;-82
2021/07/18 08:14:43;;;;;;;7.40;4.27;;;23.00;99.90;;;;;;5988868;24;20438;-82
2021/07/18 08:17:21;;;;;;;6.57;3.73;;;23.00;99.90;;;;;;6118800;23;20405;-82
2021/07/18 08:24:18;;;;;;;5.43;3.07;;;22.90;99.90;;;;;;5714230;24;20970;-80
2021/07/18 08:26:46;;;;;;;4.13;3.50;;;22.90;99.90;;;;;;5797839;24;20435;-80
2021/07/18 08:29:34;;;;;;;5.90;3.20;;;23.00;99.90;;;;;;5907764;23;20440;-82
2021/07/18 08:32:05;;;;;;;4.00;3.70;;;23.10;99.90;;;;;;6046287;23;20451;-80
2021/07/18 08:34:36;;;;;;;4.57;3.20;;;23.30;99.90;;;;;;6047954;23;20442;-83
2021/07/18 08:37:04;;;;;;;6.03;3.50;;;23.40;99.90;;;;;;6116570;23;20888;-84
2021/07/18 08:40:00;;;;;;;3.97;3.17;;;23.60;99.90;;;;;;6138096;23;20433;-84
2021/07/18 08:42:32;;;;;;;3.30;3.00;;;23.60;99.90;;;;;;6137457;23;20456;-83
2021/07/18 08:49:14;;;;;;;5.07;3.80;;;23.40;99.90;;;;;;5964820;23;20427;-82
2021/07/18 08:51:48;;;;;;;6.77;3.73;;;23.60;99.90;;;;;;6099337;23;20189;-80
2021/07/18 09:02:24;;;;;;;6.23;3.57;;;23.80;99.90;;;;;;5998745;23;20248;-79
2021/07/18 09:04:55;;;;;;;6.13;3.30;;;23.90;99.90;;;;;;6013784;23;20505;-80
2021/07/18 09:07:23;;;;;;;3.33;3.03;;;24.00;99.90;;;;;;5990604;23;20511;-84
2021/07/18 09:10:03;;;;;;;4.60;2.80;;;24.10;99.90;;;;;;6023261;23;20397;-84
2021/07/18 09:12:31;;;;;;;3.80;3.40;;;24.20;99.90;;;;;;6014001;23;20504;-78
2021/07/18 09:15:00;;;;;;;3.13;2.40;;;24.30;99.90;;;;;;6099623;23;20443;-77
2021/07/18 09:17:35;;;;;;;3.50;2.93;;;24.40;99.90;;;;;;6166202;23;20401;-76
2021/07/18 09:20:16;;;;;;;3.87;3.47;;;24.50;99.90;;;;;;6157272;23;20432;-76
2021/07/18 09:22:44;;;;;;;4.83;3.60;;;24.60;99.90;;;;;;6130001;23;20823;-77
2021/07/18 09:25:12;;;;;;;3.73;2.73;;;24.60;99.90;;;;;;6166339;23;20476;-77
2021/07/18 09:27:41;;;;;;;3.63;2.70;;;24.60;99.90;;;;;;6166398;23;20922;-77
2021/07/18 09:30:11;;;;;;;4.93;3.00;;;24.70;99.90;;;;;;6166099;23;20453;-76
2021/07/18 09:32:42;;;;;;;3.97;3.03;;;24.80;99.90;;;;;;6130018;23;20468;-76
2021/07/18 09:35:12;;;;;;;5.07;2.70;;;24.80;99.90;;;;;;6166068;23;20512;-76
2021/07/18 09:37:42;;;;;;;4.50;3.80;;;24.70;99.90;;;;;;6166053;23;20825;-76
2021/07/18 09:40:13;;;;;;;3.80;3.25;;;24.80;99.90;;;;;;6129320;23;20475;-77
2021/07/18 09:42:46;;;;;;;2.97;2.67;;;24.90;99.90;;;;;;6165298;23;20158;-77
2021/07/18 09:45:17;;;;;;;3.30;3.00;;;24.90;99.90;;;;;;6165738;23;20392;-76
2021/07/18 09:47:59;;;;;;;5.20;3.53;;;25.00;99.90;;;;;;6130383;23;20721;-76
2021/07/18 09:50:30;;;;;;;3.10;2.80;;;25.10;99.90;;;;;;6164941;23;20408;-76
2021/07/18 09:53:09;;;;;;;3.87;3.17;;;25.10;99.90;;;;;;6155816;23;20240;-77
2021/07/18 09:55:38;;;;;;;3.60;3.10;;;25.20;99.90;;;;;;6129293;23;20437;-76
2021/07/18 09:58:07;;;;;;;3.87;3.20;;;25.30;99.90;;;;;;6129384;23;20424;-76
2021/07/18 10:00:41;;;;;;;3.83;2.83;;;25.30;99.90;;;;;;6165221;23;20443;-76
2021/07/18 10:03:18;;;;;;;4.60;2.53;;;25.40;99.90;;;;;;6129236;23;20471;-77
2021/07/18 10:05:46;;;;;;;3.57;2.43;;;25.40;99.90;;;;;;6129305;23;20862;-77
2021/07/18 10:08:14;;;;;;;3.83;2.60;;;25.40;99.90;;;;;;6155685;23;20407;-77
2021/07/18 10:10:42;;;;;;;4.83;3.03;;;25.40;99.90;;;;;;6165101;23;20424;-77
2021/07/18 10:13:10;;;;;;;4.20;2.70;;;25.40;99.90;;;;;;6167281;23;20456;-76
2021/07/18 10:15:38;;;;;;;4.67;2.83;;;25.40;99.90;;;;;;6130876;23;20468;-76
2021/07/18 10:18:10;;;;;;;3.83;2.80;;;25.50;99.90;;;;;;6167343;23;20423;-76
2021/07/18 10:20:39;;;;;;;2.67;2.40;;;25.50;99.90;;;;;;6167714;23;20428;-77
2021/07/18 10:23:08;;;;;;;3.60;3.30;;;25.50;99.90;;;;;;6131238;23;20412;-77
2021/07/18 10:25:37;;;;;;;2.70;2.23;;;25.60;99.90;;;;;;6130717;23;20926;-76
2021/07/18 10:28:06;;;;;;;2.50;2.30;;;25.60;99.90;;;;;;6130750;23;20420;-76
2021/07/18 10:30:35;;;;;;;2.80;2.40;;;25.70;99.90;;;;;;6166477;23;20947;-77
2021/07/18 10:33:06;;;;;;;3.80;2.90;;;25.80;99.90;;;;;;6130869;23;20185;-76
2021/07/18 10:35:35;;;;;;;4.20;3.53;;;25.90;99.90;;;;;;6132125;23;20456;-77
2021/07/18 10:38:19;;;;;;;4.43;3.30;;;25.90;99.90;;;;;;6131460;23;20516;-77
2021/07/18 10:40:49;;;;;;;3.40;2.80;;;26.00;99.90;;;;;;6130755;23;20524;-77
2021/07/18 10:43:41;;;;;;;3.13;2.80;;;26.00;99.90;;;;;;6131438;23;20177;-77
2021/07/18 10:46:11;;;;;;;3.17;2.87;;;26.10;99.90;;;;;;6167506;23;20771;-77
2021/07/18 10:48:44;;;;;;;3.10;2.80;;;26.00;99.90;;;;;;6167862;23;20409;-77
2021/07/18 10:51:13;;;;;;;2.70;2.20;;;26.00;99.90;;;;;;6157490;23;20432;-77
2021/07/18 10:53:42;;;;;;;2.60;2.40;;;25.90;99.90;;;;;;6131087;23;20417;-77
2021/07/18 10:56:11;;;;;;;2.50;2.30;;;25.90;99.90;;;;;;6130915;23;20536;-77
2021/07/18 10:58:54;;;;;;;4.20;2.10;;;25.90;99.90;;;;;;6130825;23;20765;-77
2021/07/18 11:01:39;;;;;;;4.43;3.30;;;26.00;99.90;;;;;;6131141;23;20469;-77
2021/07/18 11:04:54;;;;;;;3.57;2.60;;;26.00;99.90;;;;;;6131078;23;20479;-77
2021/07/18 11:07:29;;;;;;;3.83;2.27;;;26.00;99.90;;;;;;6080503;23;20421;-77
2021/07/18 11:10:11;;;;;;;3.45;2.50;;;26.10;99.90;;;;;;6131946;23;20500;-77
2021/07/18 11:12:43;;;;;;;3.60;2.70;;;26.10;99.90;;;;;;6131334;23;20208;-77
2021/07/18 11:15:38;;;;;;;3.80;2.80;;;26.20;99.90;;;;;;6132149;23;20758;-78
2021/07/18 11:18:08;;;;;;;2.77;2.30;;;26.20;99.90;;;;;;6167317;23;20719;-77
2021/07/18 11:21:07;;;;;;;2.70;2.47;;;26.20;99.90;;;;;;6131162;23;20874;-77
2021/07/18 11:23:38;;;;;;;3.00;1.77;;;26.30;99.90;;;;;;6130644;23;20459;-77
2021/07/18 11:26:15;;;;;;;3.30;2.30;;;26.50;99.90;;;;;;6130774;23;20412;-77
2021/07/18 11:29:09;;;;;;;3.00;2.00;;;26.60;99.90;;;;;;6130659;23;20412;-77
2021/07/18 11:31:45;;;;;;;3.90;2.30;;;26.60;99.90;;;;;;6167476;23;20537;-77
2021/07/18 11:34:18;;;;;;;2.60;2.40;;;26.70;99.90;;;;;;6131561;23;20425;-77
2021/07/18 11:36:54;;;;;;;2.30;2.10;;;26.80;99.90;;;;;;6131567;23;20429;-77
2021/07/18 11:39:27;;;;;;;2.73;2.07;;;26.80;99.90;;;;;;6132390;23;20444;-77
2021/07/18 11:41:57;;;;;;;2.90;2.60;;;26.90;99.90;;;;;;6168024;23;20425;-77
2021/07/18 11:44:31;;;;;;;3.20;2.00;;;26.90;99.90;;;;;;6130843;23;20488;-77
2021/07/18 11:47:05;;;;;;;3.37;2.20;;;26.90;99.90;;;;;;6157829;23;20464;-77
2021/07/18 11:49:37;;;;;;;2.77;1.97;;;27.00;99.90;;;;;;6131316;23;20405;-77
2021/07/18 11:52:07;;;;;;;3.40;2.17;;;27.00;99.90;;;;;;6131251;23;20877;-77
2021/07/18 11:54:36;;;;;;;2.33;2.13;;;27.10;99.90;;;;;;6166706;23;20463;-77
2021/07/18 11:57:12;;;;;;;2.23;2.03;;;27.10;99.90;;;;;;6132832;23;20500;-78
2021/07/18 11:59:43;;;;;;;3.30;2.30;;;27.20;99.90;;;;;;6136023;23;20444;-78
2021/07/18 12:02:13;;;;;;;2.90;2.40;;;27.20;99.90;;;;;;6161514;23;20856;-78
2021/07/18 12:08:46;;;;;;;3.27;1.93;;;27.30;99.80;;;;;;6153512;23;20420;-79
2021/07/18 12:11:15;;;;;;;2.60;2.03;;;27.20;99.70;;;;;;6137107;23;20479;-79
2021/07/18 12:13:47;;;;;;;2.13;1.93;;;27.20;99.60;;;;;;6135637;23;20421;-78
2021/07/18 12:16:16;;;;;;;2.10;2.00;;;27.20;99.50;;;;;;6133939;23;20491;-78
2021/07/18 12:22:13;;;;;;;4.70;2.57;;;27.20;99.30;;;;;;6132948;23;20424;-79
2021/07/18 12:24:47;;;;;;;3.60;2.50;;;27.20;99.20;;;;;;6137648;23;20408;-78
2021/07/18 12:27:17;;;;;;;2.50;2.13;;;27.10;99.10;;;;;;6136176;23;20420;-78
2021/07/18 12:29:49;;;;;;;3.33;2.13;;;27.10;99.10;;;;;;6133076;23;20424;-78
2021/07/18 12:32:19;;;;;;;2.70;2.50;;;27.10;98.50;;;;;;6132886;23;20928;-78
2021/07/18 12:34:50;;;;;;;2.10;1.87;;;27.10;98.60;;;;;;6158651;23;20916;-78
2021/07/18 12:37:20;;;;;;;3.13;2.30;;;27.10;98.70;;;;;;6133231;23;20439;-78
2021/07/18 12:39:50;;;;;;;5.40;2.53;;;27.00;98.70;;;;;;6132087;23;20417;-78
2021/07/18 12:42:24;;;;;;;3.33;3.00;;;27.00;98.70;;;;;;6131908;23;20408;-78
2021/07/18 12:44:56;;;;;;;2.30;2.10;;;27.10;98.80;;;;;;6132833;23;20464;-78
2021/07/18 12:47:44;;;;;;;2.60;2.40;;;27.10;98.80;;;;;;6168659;23;20440;-78
2021/07/18 12:50:20;;;;;;;2.43;2.23;;;27.10;98.60;;;;;;6133087;23;20923;-79
2021/07/18 12:52:55;;;;;;;2.90;2.13;;;27.10;98.60;;;;;;6135583;23;20439;-78
2021/07/18 12:55:28;;;;;;;2.30;2.10;;;27.00;98.20;;;;;;6133345;23;20412;-78
2021/07/18 12:57:57;;;;;;;3.37;2.10;;;27.00;98.20;;;;;;6160599;23;20397;-78
2021/07/18 13:00:28;;;;;;;3.47;2.33;;;27.00;98.20;;;;;;6159958;23;20429;-78
2021/07/18 13:03:10;;;;;;;3.50;2.80;;;27.10;98.10;;;;;;6133652;23;20405;-79
2021/07/18 13:05:38;;;;;;;3.28;2.20;;;27.20;97.80;;;;;;6168289;23;20452;-79
2021/07/18 13:08:07;;;;;;;4.10;2.40;;;27.30;97.10;;;;;;6131974;23;20184;-77
2021/07/18 13:10:41;;;;;;;2.37;1.90;;;27.50;97.10;;;;;;6131362;23;20443;-79
2021/07/18 13:13:11;;;;;;;3.45;2.20;;;27.50;97.10;;;;;;6158584;23;20452;-79
2021/07/18 13:15:40;;;;;;;4.30;2.00;;;27.60;96.70;;;;;;6130821;23;20528;-77
2021/07/18 13:18:09;;;;;;;2.70;2.30;;;27.60;96.60;;;;;;6129383;23;20476;-77
2021/07/18 13:20:43;;;;;;;2.80;2.10;;;27.60;96.60;;;;;;6129584;23;20451;-76
2021/07/18 13:23:11;;;;;;;2.60;2.23;;;27.50;96.70;;;;;;6155897;23;20421;-77
2021/07/18 13:25:43;;;;;;;4.73;2.60;;;27.50;96.80;;;;;;6129476;23;20472;-76
2021/07/18 13:28:12;;;;;;;2.90;2.70;;;27.50;96.80;;;;;;6165760;23;20413;-77
2021/07/18 13:30:43;;;;;;;2.83;2.20;;;27.50;96.80;;;;;;6165468;23;20425;-77
2021/07/18 13:33:14;;;;;;;3.40;2.30;;;27.50;96.80;;;;;;6129688;23;20931;-76
2021/07/18 13:35:45;;;;;;;3.10;2.37;;;27.40;96.80;;;;;;6155535;23;20403;-76
2021/07/18 13:38:25;;;;;;;2.40;2.20;;;27.30;96.80;;;;;;6129585;23;20496;-77
2021/07/18 13:40:54;;;;;;;2.97;2.13;;;27.30;96.80;;;;;;6129414;23;20432;-76
2021/07/18 13:43:24;;;;;;;4.10;2.50;;;27.10;96.70;;;;;;6165290;23;20393;-76
2021/07/18 13:45:56;;;;;;;4.00;2.03;;;27.00;96.50;;;;;;6129814;23;20484;-77
2021/07/18 13:48:25;;;;;;;2.17;1.97;;;26.90;96.50;;;;;;6131814;23;20499;-77
2021/07/18 13:50:55;;;;;;;3.33;2.07;;;27.00;96.40;;;;;;6132492;23;20527;-78
2021/07/18 13:53:23;;;;;;;2.37;1.80;;;27.00;96.40;;;;;;6133507;23;20421;-79
2021/07/18 13:55:57;;;;;;;3.38;2.10;;;27.10;96.50;;;;;;6134704;23;20447;-81
2021/07/18 13:58:25;;;;;;;2.63;1.83;;;27.20;95.70;;;;;;6133869;23;20181;-80
2021/07/18 14:00:56;;;;;;;2.00;1.80;;;27.20;95.70;;;;;;6132481;23;20437;-76
2021/07/18 14:03:25;;;;;;;2.20;2.00;;;27.20;96.10;;;;;;6157592;23;20459;-77
2021/07/18 14:05:53;;;;;;;3.17;2.27;;;27.10;95.80;;;;;;6131071;23;20503;-77
2021/07/18 14:08:21;;;;;;;2.47;2.27;;;27.10;95.80;;;;;;6131111;23;20444;-77
2021/07/18 14:10:49;;;;;;;2.93;1.80;;;27.00;95.80;;;;;;6157202;23;20837;-77
2021/07/18 14:13:18;;;;;;;2.03;1.83;;;27.00;95.90;;;;;;6131082;23;20857;-77